createdAt,value
2022-08-05T00:01:36.467Z,3.60
2022-08-05T00:04:17.757Z,4.85
2022-08-05T00:06:47.304Z,5.43
2022-08-05T00:09:19.832Z,4.57
2022-08-05T00:11:56.199Z,6.07
2022-08-05T00:14:31.403Z,7.03
2022-08-05T00:17:01.675Z,7.38
2022-08-05T00:19:32.831Z,5.45
2022-08-05T00:22:02.214Z,3.90
2022-08-05T00:24:30.627Z,6.47
2022-08-05T00:27:01.265Z,4.22
2022-08-05T00:32:12.362Z,7.32
2022-08-05T00:35:03.369Z,4.72
2022-08-05T00:37:50.355Z,6.50
2022-08-05T00:40:27.550Z,4.88
2022-08-05T00:42:59.764Z,6.30
2022-08-05T00:45:38.823Z,4.05
2022-08-05T00:48:12.075Z,4.57
2022-08-05T00:50:44.264Z,6.18
2022-08-05T00:56:02.685Z,3.75
2022-08-05T00:58:33.051Z,5.88
2022-08-05T01:01:02.606Z,4.82
2022-08-05T01:03:37.462Z,5.20
2022-08-05T01:06:05.967Z,4.40
2022-08-05T01:11:22.118Z,4.85
2022-08-05T01:14:08.698Z,7.10
2022-08-05T01:19:36.775Z,7.85
2022-08-05T01:22:28.320Z,8.18
2022-08-05T01:25:40.020Z,7.35
2022-08-05T01:28:27.652Z,7.35
2022-08-05T01:31:02.880Z,6.95
2022-08-05T01:33:35.971Z,6.07
2022-08-05T01:36:13.224Z,9.20
2022-08-05T01:38:48.438Z,7.53
2022-08-05T01:41:21.979Z,6.75
2022-08-05T01:43:53.400Z,6.38
2022-08-05T01:46:42.963Z,8.00
2022-08-05T01:49:24.215Z,10.07
2022-08-05T01:51:59.258Z,7.35
2022-08-05T01:54:32.807Z,4.80
2022-08-05T01:58:09.489Z,6.97
2022-08-05T01:59:53.725Z,7.13
2022-08-05T02:02:26.259Z,7.60
2022-08-05T02:05:01.245Z,7.22
2022-08-05T02:07:32.126Z,5.28
2022-08-05T02:10:03.273Z,4.65
2022-08-05T02:12:39.760Z,5.63
2022-08-05T02:15:14.380Z,4.60
2022-08-05T02:18:28.292Z,5.57
2022-08-05T02:20:51.265Z,7.57
2022-08-05T02:23:24.882Z,10.68
2022-08-05T02:25:54.222Z,4.15
2022-08-05T02:28:28.995Z,6.18
2022-08-05T02:31:06.036Z,6.32
2022-08-05T02:33:40.781Z,6.35
2022-08-05T02:36:15.611Z,7.18
2022-08-05T02:38:53.192Z,8.00
2022-08-05T02:41:23.703Z,6.07
2022-08-05T02:44:02.747Z,6.38
2022-08-05T02:46:43.890Z,8.73
2022-08-05T02:49:26.848Z,6.85
2022-08-05T02:52:02.724Z,9.95
2022-08-05T02:54:35.958Z,5.03
2022-08-05T02:57:10.150Z,6.82
2022-08-05T02:59:57.621Z,6.10
2022-08-05T03:02:30.783Z,5.22
2022-08-05T03:04:59.961Z,7.32
2022-08-05T03:07:40.315Z,8.50
2022-08-05T03:10:22.002Z,5.47
2022-08-05T03:12:53.686Z,4.65
2022-08-05T03:15:23.369Z,6.65
2022-08-05T03:17:56.015Z,5.35
2022-08-05T03:20:26.422Z,7.25
2022-08-05T03:22:57.682Z,6.05
2022-08-05T03:25:33.269Z,5.95
2022-08-05T03:28:18.562Z,5.55
2022-08-05T03:30:48.967Z,5.53
2022-08-05T03:33:18.954Z,6.30
2022-08-05T03:35:48.496Z,7.15
2022-08-05T03:38:32.917Z,6.13
2022-08-05T03:41:04.063Z,9.15
2022-08-05T03:44:08.815Z,7.93
2022-08-05T03:46:30.064Z,7.15
2022-08-05T03:49:02.255Z,7.10
2022-08-05T03:52:38.456Z,7.25
2022-08-05T03:55:51.036Z,7.10
2022-08-05T03:57:35.158Z,6.97
2022-08-05T04:00:15.591Z,8.88
2022-08-05T04:02:51.961Z,9.40
2022-08-05T04:05:33.997Z,7.55
2022-08-05T04:08:05.819Z,11.88
2022-08-05T04:10:51.591Z,6.10
2022-08-05T04:13:21.688Z,10.90
2022-08-05T04:16:02.973Z,9.10
2022-08-05T04:18:34.464Z,6.95
2022-08-05T04:21:05.331Z,9.43
2022-08-05T04:24:04.979Z,8.13
2022-08-05T04:26:23.462Z,7.18
2022-08-05T04:28:52.115Z,5.75
2022-08-05T04:31:20.816Z,12.43
2022-08-05T04:33:54.924Z,6.47
2022-08-05T04:36:45.485Z,15.63
2022-08-05T04:39:14.819Z,11.20
2022-08-05T04:41:42.982Z,9.40
2022-08-05T04:44:13.728Z,7.22
2022-08-05T04:46:41.829Z,10.13
2022-08-05T04:51:45.567Z,7.05
2022-08-05T04:54:14.930Z,5.85
2022-08-05T04:56:43.692Z,5.93
2022-08-05T04:59:22.442Z,6.45
2022-08-05T05:02:07.542Z,8.43
2022-08-05T05:04:49.865Z,6.80
2022-08-05T05:07:23.928Z,8.70
2022-08-05T05:09:57.705Z,11.60
2022-08-05T05:12:27.415Z,9.00
2022-08-05T05:14:55.897Z,6.57
2022-08-05T05:17:55.400Z,14.13
2022-08-05T05:20:13.732Z,13.25
2022-08-05T05:22:44.145Z,12.05
2022-08-05T05:25:16.659Z,7.30
2022-08-05T05:27:53.737Z,5.72
2022-08-05T05:30:29.508Z,5.45
2022-08-05T05:33:08.805Z,7.10
2022-08-05T05:35:45.586Z,7.25
2022-08-05T05:38:22.715Z,8.25
2022-08-05T05:40:56.164Z,8.90
2022-08-05T05:43:57.360Z,17.27
2022-08-05T05:46:17.598Z,8.85
2022-08-05T05:51:21.296Z,11.75
2022-08-05T05:53:57.239Z,14.05
2022-08-05T05:56:32.432Z,9.98
2022-08-05T05:59:05.267Z,9.70
2022-08-05T06:01:38.026Z,11.65
2022-08-05T06:04:08.368Z,9.18
2022-08-05T06:09:17.729Z,12.90
2022-08-05T06:11:59.932Z,13.85
2022-08-05T06:14:30.707Z,11.05
2022-08-05T06:16:59.279Z,19.58
2022-08-05T06:19:35.242Z,12.63
2022-08-05T06:22:04.006Z,7.85
2022-08-05T06:24:33.980Z,8.07
2022-08-05T06:27:04.076Z,11.38
2022-08-05T06:29:49.492Z,10.27
2022-08-05T06:32:25.393Z,9.70
2022-08-05T06:34:56.331Z,11.82
2022-08-05T06:37:57.286Z,13.18
2022-08-05T06:40:18.237Z,13.60
2022-08-05T06:42:51.879Z,12.80
2022-08-05T06:45:44.839Z,13.20
2022-08-05T06:48:36.988Z,11.93
2022-08-05T06:50:58.689Z,15.73
2022-08-05T06:53:29.233Z,11.35
2022-08-05T06:56:00.837Z,18.05
2022-08-05T06:58:36.440Z,7.35
2022-08-05T07:01:06.787Z,8.82
2022-08-05T07:03:35.493Z,6.82
2022-08-05T07:06:05.864Z,8.00
2022-08-05T07:08:42.710Z,13.13
2022-08-05T07:11:15.323Z,7.50
2022-08-05T07:14:01.559Z,7.25
2022-08-05T07:17:58.981Z,9.60
2022-08-05T07:22:29.102Z,10.10
2022-08-05T07:24:59.658Z,5.38
2022-08-05T07:27:57.490Z,9.57
2022-08-05T07:30:33.315Z,6.78
2022-08-05T07:33:05.199Z,4.60
2022-08-05T07:36:04.593Z,10.23
2022-08-05T07:38:33.312Z,7.82
2022-08-05T07:42:07.407Z,8.68
2022-08-05T07:43:56.632Z,10.02
2022-08-05T07:46:26.608Z,9.38
2022-08-05T07:49:01.472Z,10.77
2022-08-05T07:51:40.554Z,7.78
2022-08-05T07:54:10.543Z,8.05
2022-08-05T07:57:01.556Z,10.07
2022-08-05T07:59:38.271Z,6.72
2022-08-05T08:02:10.655Z,12.48
2022-08-05T08:04:46.574Z,11.27
2022-08-05T08:07:22.791Z,8.93
2022-08-05T08:09:54.922Z,7.43
2022-08-05T08:12:36.873Z,9.93
2022-08-05T08:15:15.038Z,8.93
2022-08-05T08:17:50.759Z,5.10
2022-08-05T08:20:59.730Z,9.68
2022-08-05T08:23:59.798Z,6.53
2022-08-05T08:25:59.879Z,9.02
2022-08-05T08:28:36.394Z,5.60
2022-08-05T08:31:14.569Z,9.05
2022-08-05T08:33:46.934Z,8.13
2022-08-05T08:36:38.691Z,5.68
2022-08-05T08:39:15.598Z,5.55
2022-08-05T08:41:52.697Z,10.65
2022-08-05T08:45:18.391Z,11.18
2022-08-05T08:48:06.205Z,5.50
2022-08-05T08:50:30.988Z,8.68
2022-08-05T08:53:08.015Z,6.55
2022-08-05T08:56:04.459Z,5.07
2022-08-05T08:58:36.982Z,7.38
2022-08-05T09:01:16.648Z,5.80
2022-08-05T09:03:54.440Z,9.88
2022-08-05T09:06:29.741Z,8.13
2022-08-05T09:09:00.578Z,5.57
2022-08-05T09:11:53.637Z,13.63
2022-08-05T09:14:57.192Z,3.25
2022-08-05T09:17:09.649Z,7.35
2022-08-05T09:20:01.896Z,3.50
2022-08-05T09:22:31.314Z,6.78
2022-08-05T09:25:02.193Z,4.63
2022-08-05T09:28:03.830Z,5.20
2022-08-05T09:30:30.522Z,8.05
2022-08-05T09:33:04.597Z,6.32
2022-08-05T09:35:34.545Z,4.85
2022-08-05T09:38:16.749Z,4.75
2022-08-05T09:40:52.742Z,6.45
2022-08-05T09:43:40.883Z,7.57
2022-08-05T09:46:27.527Z,8.57
2022-08-05T09:49:08.105Z,7.07
2022-08-05T09:51:48.862Z,4.97
2022-08-05T09:54:30.645Z,7.78
2022-08-05T09:57:01.493Z,4.00
2022-08-05T09:59:35.203Z,9.93
2022-08-05T10:02:05.998Z,6.07
2022-08-05T10:04:39.741Z,6.07
2022-08-05T10:07:20.563Z,4.85
2022-08-05T10:10:14.362Z,17.70
2022-08-05T10:12:49.382Z,6.47
2022-08-05T10:15:24.013Z,11.85
2022-08-05T10:18:16.703Z,4.35
2022-08-05T10:20:48.592Z,9.60
2022-08-05T10:23:34.321Z,10.15
2022-08-05T10:26:14.303Z,6.68
2022-08-05T10:28:45.114Z,7.90
2022-08-05T10:32:54.989Z,7.38
2022-08-05T10:34:03.391Z,5.95
2022-08-05T10:36:32.166Z,8.70
2022-08-05T10:39:11.535Z,7.65
2022-08-05T10:41:48.371Z,5.55
2022-08-05T10:44:20.343Z,5.53
2022-08-05T10:46:51.093Z,10.15
2022-08-05T10:49:27.590Z,8.63
2022-08-05T10:52:05.039Z,7.30
2022-08-05T10:55:05.174Z,6.57
2022-08-05T10:57:35.015Z,5.47
2022-08-05T11:00:20.052Z,6.93
2022-08-05T11:03:24.371Z,9.63
2022-08-05T11:06:08.460Z,9.95
2022-08-05T11:09:32.013Z,5.35
2022-08-05T11:12:54.279Z,5.25
2022-08-05T11:16:00.174Z,5.25
2022-08-05T11:18:30.047Z,6.10
2022-08-05T11:21:02.095Z,6.35
2022-08-05T11:24:03.948Z,4.88
2022-08-05T11:26:33.391Z,5.10
2022-08-05T11:29:12.538Z,6.45
2022-08-05T11:31:57.340Z,5.70
2022-08-05T11:34:39.717Z,6.75
2022-08-05T11:38:29.278Z,5.80
2022-08-05T11:40:02.702Z,5.93
2022-08-05T11:42:37.840Z,12.18
2022-08-05T11:45:26.799Z,4.75
2022-08-05T11:47:59.561Z,10.73
2022-08-05T11:50:28.699Z,5.78
2022-08-05T11:52:58.319Z,8.50
2022-08-05T11:55:31.819Z,9.27
2022-08-05T11:58:09.906Z,10.68
2022-08-05T12:00:44.098Z,9.30
2022-08-05T12:06:02.147Z,3.88
2022-08-05T12:08:32.683Z,4.85
2022-08-05T12:11:06.276Z,4.13
2022-08-05T12:13:48.933Z,5.80
2022-08-05T12:16:26.961Z,6.40
2022-08-05T12:18:56.053Z,3.60
2022-08-05T12:21:26.746Z,4.10
2022-08-05T12:24:04.827Z,6.90
2022-08-05T12:26:35.503Z,9.15
2022-08-05T12:29:05.630Z,6.70
2022-08-05T12:31:45.884Z,6.80
2022-08-05T12:34:23.445Z,10.32
2022-08-05T12:36:54.537Z,6.50
2022-08-05T12:39:34.615Z,3.22
2022-08-05T12:42:14.318Z,8.00
2022-08-05T12:44:44.625Z,6.90
2022-08-05T12:47:17.782Z,4.80
2022-08-05T12:50:03.594Z,8.65
2022-08-05T12:52:39.230Z,5.95
2022-08-05T12:55:23.506Z,3.83
2022-08-05T12:58:49.099Z,9.50
2022-08-05T13:02:05.043Z,4.75
2022-08-05T13:03:38.921Z,6.10
2022-08-05T13:06:13.000Z,5.85
2022-08-05T13:08:41.773Z,6.40
2022-08-05T13:12:01.179Z,6.13
2022-08-05T13:14:25.038Z,8.73
2022-08-05T13:17:09.285Z,5.55
2022-08-05T13:19:40.296Z,9.27
2022-08-05T13:25:00.858Z,6.45
2022-08-05T13:27:38.167Z,4.65
2022-08-05T13:30:35.066Z,7.35
2022-08-05T13:32:57.043Z,8.05
2022-08-05T13:35:47.331Z,8.02
2022-08-05T13:38:30.552Z,6.88
2022-08-05T13:41:00.297Z,8.73
2022-08-05T13:43:45.723Z,6.15
2022-08-05T13:46:30.745Z,4.53
2022-08-05T13:49:11.688Z,6.68
2022-08-05T13:51:46.166Z,8.23
2022-08-05T13:54:16.935Z,3.35
2022-08-05T13:56:50.819Z,3.80
2022-08-05T13:59:24.085Z,10.95
2022-08-05T14:01:58.414Z,15.05
2022-08-05T14:04:50.069Z,8.73
2022-08-05T14:07:25.715Z,8.70
2022-08-05T14:10:12.118Z,7.38
2022-08-05T14:12:42.735Z,6.05
2022-08-05T14:16:05.218Z,4.15
2022-08-05T14:18:01.111Z,6.03
2022-08-05T14:20:30.783Z,10.68
2022-08-05T14:23:00.836Z,12.38
2022-08-05T14:25:30.789Z,10.40
2022-08-05T14:27:58.952Z,9.40
2022-08-05T14:30:28.262Z,7.93
2022-08-05T14:32:58.833Z,7.22
2022-08-05T14:35:37.015Z,8.02
2022-08-05T14:38:32.315Z,8.40
2022-08-05T14:41:06.906Z,5.57
2022-08-05T14:43:58.883Z,5.03
2022-08-05T14:46:28.794Z,5.22
2022-08-05T14:49:03.490Z,4.57
2022-08-05T14:51:35.967Z,8.23
2022-08-05T14:54:27.172Z,7.63
2022-08-05T14:56:55.793Z,4.60
2022-08-05T14:59:23.912Z,12.75
2022-08-05T15:01:53.747Z,6.47
2022-08-05T15:04:22.734Z,6.70
2022-08-05T15:06:51.695Z,8.95
2022-08-05T15:09:53.441Z,10.50
2022-08-05T15:12:11.441Z,7.65
2022-08-05T15:14:48.429Z,5.47
2022-08-05T15:17:45.807Z,4.90
2022-08-05T15:20:17.229Z,3.67
2022-08-05T15:22:54.370Z,9.15
2022-08-05T15:25:51.887Z,4.00
2022-08-05T15:28:16.174Z,4.40
2022-08-05T15:30:45.828Z,6.10
2022-08-05T15:34:05.979Z,4.85
2022-08-05T15:36:04.415Z,3.85
2022-08-05T15:38:36.466Z,5.55
2022-08-05T15:41:22.507Z,4.88
2022-08-05T15:43:51.790Z,7.90
2022-08-05T15:46:21.458Z,5.22
2022-08-05T15:49:00.618Z,4.00
2022-08-05T15:52:13.398Z,5.13
2022-08-05T15:54:34.491Z,8.90
2022-08-05T15:57:07.327Z,6.22
2022-08-05T15:59:38.106Z,4.40
2022-08-05T16:02:09.725Z,3.42
2022-08-05T16:04:43.298Z,6.25
2022-08-05T16:07:13.203Z,9.73
2022-08-05T16:09:43.466Z,3.92
2022-08-05T16:12:13.265Z,7.88
2022-08-05T16:14:43.644Z,3.83
2022-08-05T16:17:12.776Z,3.92
2022-08-05T16:20:05.576Z,7.28
2022-08-05T16:22:33.975Z,6.13
2022-08-05T16:25:07.866Z,7.90
2022-08-05T16:27:46.952Z,4.57
2022-08-05T16:30:29.404Z,6.13
2022-08-05T16:32:57.968Z,3.08
2022-08-05T16:35:28.301Z,6.78
2022-08-05T16:38:02.384Z,7.03
2022-08-05T16:40:52.001Z,7.45
2022-08-05T16:43:32.283Z,7.43
2022-08-05T16:46:04.278Z,7.95
2022-08-05T16:48:37.723Z,3.50
2022-08-05T16:51:09.869Z,5.50
2022-08-05T16:54:03.187Z,10.00
2022-08-05T16:56:30.387Z,5.57
2022-08-05T16:59:00.886Z,7.28
2022-08-05T17:01:54.783Z,5.25
2022-08-05T17:04:26.872Z,6.57
2022-08-05T17:07:00.179Z,7.20
2022-08-05T17:09:29.995Z,7.50
2022-08-05T17:11:59.841Z,5.75
2022-08-05T17:14:34.404Z,8.30
2022-08-05T17:17:06.781Z,8.13
2022-08-05T17:19:45.565Z,4.55
2022-08-05T17:22:24.366Z,4.78
2022-08-05T17:24:58.009Z,7.85
2022-08-05T17:27:33.712Z,8.55
2022-08-05T17:30:11.989Z,4.80
2022-08-05T17:32:47.168Z,5.22
2022-08-05T17:35:20.713Z,9.60
2022-08-05T17:37:50.564Z,8.05
2022-08-05T17:40:22.492Z,9.75
2022-08-05T17:42:52.823Z,9.13
2022-08-05T17:45:37.940Z,5.82
2022-08-05T17:48:08.051Z,6.03
2022-08-05T17:50:36.379Z,8.38
2022-08-05T17:53:08.343Z,9.07
2022-08-05T17:55:37.570Z,6.38
2022-08-05T17:58:09.704Z,9.80
2022-08-05T18:00:45.093Z,8.27
2022-08-05T18:06:11.313Z,7.45
2022-08-05T18:08:44.911Z,8.70
2022-08-05T18:13:53.102Z,10.50
2022-08-05T18:16:22.653Z,6.95
2022-08-05T18:18:50.937Z,14.50
2022-08-05T18:21:21.233Z,11.40
2022-08-05T18:23:54.282Z,10.48
2022-08-05T18:26:29.602Z,13.65
2022-08-05T18:29:00.625Z,13.23
2022-08-05T18:31:33.775Z,17.88
2022-08-05T18:34:05.962Z,18.05
2022-08-05T18:36:36.384Z,17.88
2022-08-05T18:39:09.630Z,17.95
2022-08-05T18:41:55.691Z,21.20
2022-08-05T18:44:34.618Z,17.00
2022-08-05T18:47:05.459Z,16.17
2022-08-05T18:49:58.183Z,22.02
2022-08-05T18:52:36.194Z,16.35
2022-08-05T18:55:10.615Z,15.13
2022-08-05T18:57:43.229Z,12.95
2022-08-05T19:00:20.826Z,21.92
2022-08-05T19:02:54.734Z,14.65
2022-08-05T19:06:13.369Z,18.15
2022-08-05T19:08:12.249Z,9.43
2022-08-05T19:10:42.168Z,14.35
2022-08-05T19:13:12.479Z,21.23
2022-08-05T19:15:58.260Z,24.10
2022-08-05T19:18:30.467Z,24.23
2022-08-05T19:20:59.670Z,20.58
2022-08-05T19:24:07.090Z,25.08
2022-08-05T19:26:19.925Z,17.55
2022-08-05T19:28:48.030Z,12.75
2022-08-05T19:31:19.522Z,14.75
2022-08-05T19:36:26.093Z,16.17
2022-08-05T19:38:55.196Z,14.98
2022-08-05T19:41:58.434Z,17.20
2022-08-05T19:44:18.804Z,15.15
2022-08-05T19:46:47.308Z,12.35
2022-08-05T19:49:20.135Z,14.70
2022-08-05T19:52:08.807Z,11.55
2022-08-05T19:54:37.207Z,9.95
2022-08-05T19:57:09.491Z,11.70
2022-08-05T19:59:56.195Z,6.95
2022-08-05T20:02:31.265Z,11.63
2022-08-05T20:05:01.191Z,10.82
2022-08-05T20:07:46.771Z,8.50
2022-08-05T20:10:16.621Z,14.75
2022-08-05T20:12:47.983Z,12.45
2022-08-05T20:15:23.374Z,13.73
2022-08-05T20:18:10.320Z,18.13
2022-08-05T20:20:56.917Z,13.40
2022-08-05T20:23:39.929Z,11.55
2022-08-05T20:26:16.423Z,10.48
2022-08-05T20:28:48.589Z,9.95
2022-08-05T20:31:17.209Z,14.70
2022-08-05T20:33:45.971Z,11.93
2022-08-05T20:36:18.055Z,14.80
2022-08-05T20:38:54.068Z,12.43
2022-08-05T20:41:43.971Z,11.00
2022-08-05T20:44:17.074Z,7.68
2022-08-05T20:46:48.206Z,9.30
2022-08-05T20:49:18.492Z,7.85
2022-08-05T20:51:54.358Z,11.52
2022-08-05T20:54:22.777Z,17.73
2022-08-05T20:56:53.086Z,11.43
2022-08-05T20:59:27.103Z,11.50
2022-08-05T21:02:09.502Z,11.18
2022-08-05T21:04:39.139Z,11.27
2022-08-05T21:07:09.202Z,14.50
2022-08-05T21:09:37.357Z,10.63
2022-08-05T21:12:19.924Z,13.25
2022-08-05T21:14:48.290Z,10.00
2022-08-05T21:17:16.745Z,11.20
2022-08-05T21:19:48.018Z,15.02
2022-08-05T21:22:23.247Z,13.77
2022-08-05T21:24:52.660Z,10.38
2022-08-05T21:27:24.629Z,10.65
2022-08-05T21:29:53.979Z,13.35
2022-08-05T21:32:27.692Z,8.77
2022-08-05T21:35:16.857Z,11.88
2022-08-05T21:37:53.058Z,9.30
2022-08-05T21:40:23.294Z,12.30
2022-08-05T21:42:52.992Z,10.38
2022-08-05T21:45:25.223Z,10.13
2022-08-05T21:48:11.258Z,8.75
2022-08-05T21:50:42.128Z,10.13
2022-08-05T21:53:27.048Z,12.43
2022-08-05T21:56:05.809Z,11.75
2022-08-05T21:58:56.912Z,12.80
2022-08-05T22:01:26.781Z,13.88
2022-08-05T22:03:55.258Z,12.45
2022-08-05T22:06:35.548Z,10.90
2022-08-05T22:11:43.612Z,13.88
2022-08-05T22:14:33.030Z,11.45
2022-08-05T22:17:03.875Z,15.77
2022-08-05T22:20:03.196Z,14.25
2022-08-05T22:22:27.264Z,15.13
2022-08-05T22:25:21.327Z,6.88
2022-08-05T22:28:11.211Z,14.00
2022-08-05T22:30:44.191Z,15.38
2022-08-05T22:33:57.050Z,12.27
2022-08-05T22:36:14.599Z,13.07
2022-08-05T22:38:47.940Z,10.23
2022-08-05T22:42:05.071Z,12.95
2022-08-05T22:44:08.274Z,9.85
2022-08-05T22:46:40.096Z,9.10
2022-08-05T22:49:23.578Z,11.13
2022-08-05T22:52:04.395Z,9.27
2022-08-05T22:54:35.223Z,10.43
2022-08-05T22:57:05.644Z,8.82
2022-08-05T22:59:44.008Z,9.70
2022-08-05T23:02:16.751Z,11.13
2022-08-05T23:04:51.889Z,7.70
2022-08-05T23:07:21.860Z,10.05
2022-08-05T23:09:57.637Z,10.23
2022-08-05T23:12:33.312Z,8.82
2022-08-05T23:15:03.571Z,7.05
2022-08-05T23:17:37.469Z,8.80
2022-08-05T23:20:21.687Z,12.73
2022-08-05T23:22:56.118Z,7.55
2022-08-05T23:25:51.904Z,10.60
2022-08-05T23:28:15.976Z,10.25
2022-08-05T23:30:53.088Z,10.15
2022-08-05T23:33:26.080Z,6.93
2022-08-05T23:36:13.511Z,9.52
2022-08-05T23:38:43.551Z,9.80
2022-08-05T23:41:12.408Z,11.60
2022-08-05T23:44:05.581Z,12.40
2022-08-05T23:46:30.809Z,8.38
2022-08-05T23:49:00.412Z,9.63
2022-08-05T23:51:52.422Z,7.78
2022-08-05T23:54:25.695Z,9.75
2022-08-05T23:56:58.223Z,10.00
